createdAt,value
2023-03-06T00:03:01.289Z,5.9
2023-03-06T00:08:01.457Z,5.8
2023-03-06T00:13:01.385Z,5.7
2023-03-06T00:18:01.383Z,5.9
2023-03-06T00:23:01.820Z,5.9
2023-03-06T00:28:01.555Z,6.0
2023-03-06T00:33:01.297Z,5.9
2023-03-06T00:44:01.458Z,6.3
2023-03-06T00:49:01.341Z,6.2
2023-03-06T00:59:01.746Z,6.1
2023-03-06T01:04:01.433Z,5.9
2023-03-06T01:09:01.293Z,5.7
2023-03-06T01:14:01.296Z,6.0
2023-03-06T01:19:01.326Z,5.9
2023-03-06T01:24:01.470Z,6.3
2023-03-06T01:29:01.252Z,6.7
2023-03-06T01:34:01.347Z,7.4
2023-03-06T01:39:01.317Z,7.8
2023-03-06T01:44:01.448Z,7.8
2023-03-06T01:49:01.345Z,8.2
2023-03-06T01:54:01.325Z,7.9
2023-03-06T01:59:01.286Z,7.9
2023-03-06T02:04:01.374Z,7.9
2023-03-06T02:09:01.383Z,8.4
2023-03-06T02:14:01.293Z,8.6
2023-03-06T02:19:01.264Z,9.6
2023-03-06T02:24:01.555Z,9.7
2023-03-06T02:29:01.281Z,9.6
2023-03-06T02:39:01.277Z,9.1
2023-03-06T02:44:01.499Z,9.0
2023-03-06T02:49:01.275Z,8.6
2023-03-06T02:54:01.282Z,8.6
2023-03-06T02:59:01.289Z,8.9
2023-03-06T03:04:01.423Z,9.1
2023-03-06T03:10:01.329Z,9.0
2023-03-06T03:15:01.735Z,9.8
2023-03-06T03:20:01.439Z,9.8
2023-03-06T03:25:01.385Z,10.3
2023-03-06T03:30:01.845Z,9.9
2023-03-06T03:35:01.324Z,9.7
2023-03-06T03:40:01.477Z,9.9
2023-03-06T03:45:01.921Z,10.0
2023-03-06T03:50:01.376Z,10.2
2023-03-06T03:55:01.300Z,10.8
2023-03-06T04:00:02.936Z,11.2
2023-03-06T04:05:01.498Z,11.0
2023-03-06T04:10:01.295Z,11.3
2023-03-06T04:15:02.685Z,10.6
2023-03-06T04:20:01.538Z,10.3
2023-03-06T04:25:01.297Z,10.4
2023-03-06T04:30:02.158Z,10.4
2023-03-06T04:35:01.320Z,10.3
2023-03-06T04:40:01.878Z,10.2
2023-03-06T04:45:02.000Z,10.5
2023-03-06T04:50:01.380Z,10.4
2023-03-06T04:55:01.280Z,10.2
2023-03-06T05:00:04.047Z,10.6
2023-03-06T05:05:01.505Z,11.2
2023-03-06T05:10:01.425Z,11.2
2023-03-06T05:15:02.674Z,10.8
2023-03-06T05:20:01.560Z,11.4
2023-03-06T05:25:01.314Z,10.6
2023-03-06T05:30:01.952Z,10.6
2023-03-06T05:35:01.495Z,10.4
2023-03-06T05:40:01.464Z,10.8
2023-03-06T05:45:02.697Z,10.5
2023-03-06T05:50:01.265Z,11.5
2023-03-06T05:55:01.344Z,12.5
2023-03-06T06:00:02.386Z,12.8
2023-03-06T06:05:01.399Z,13.1
2023-03-06T06:10:04.163Z,13.6
2023-03-06T06:15:01.843Z,13.6
2023-03-06T06:20:01.428Z,13.4
2023-03-06T06:25:01.263Z,13.3
2023-03-06T06:30:02.050Z,13.1
2023-03-06T06:35:01.361Z,13.4
2023-03-06T06:40:01.568Z,13.8
2023-03-06T06:45:02.329Z,14.1
2023-03-06T07:10:04.821Z,12.4
2023-03-06T07:15:03.742Z,12.7
2023-03-06T07:20:01.444Z,10.9
2023-03-06T07:26:02.018Z,11.4
2023-03-06T07:31:01.457Z,12.3
2023-03-06T07:36:01.440Z,12.4
2023-03-06T07:46:01.862Z,13.7
2023-03-06T07:51:04.718Z,13.2
2023-03-06T07:56:01.350Z,12.7
2023-03-06T08:01:01.492Z,12.4
2023-03-06T08:06:01.485Z,12.6
2023-03-06T08:11:02.508Z,12.8
2023-03-06T08:16:01.441Z,13.7
2023-03-06T08:21:01.314Z,13.3
2023-03-06T08:26:01.462Z,13.2
2023-03-06T08:31:01.274Z,13.0
2023-03-06T08:36:02.864Z,12.5
2023-03-06T08:41:01.703Z,12.1
2023-03-06T08:46:01.558Z,11.8
2023-03-06T08:51:01.303Z,10.9
2023-03-06T08:56:01.322Z,11.0
2023-03-06T09:01:01.615Z,11.2
2023-03-06T09:06:01.524Z,11.3
2023-03-06T09:11:01.997Z,12.5
2023-03-06T09:16:01.330Z,14.4
2023-03-06T09:21:01.348Z,14.5
2023-03-06T09:26:01.429Z,14.3
2023-03-06T09:31:06.474Z,14.1
2023-03-06T09:36:01.337Z,14.5
2023-03-06T09:41:01.456Z,14.4
2023-03-06T09:51:06.920Z,15.4
2023-03-06T09:56:01.245Z,16.6
2023-03-06T10:01:01.325Z,16.2
2023-03-06T10:06:03.069Z,16.6
2023-03-06T10:11:01.801Z,15.9
2023-03-06T10:16:18.386Z,15.6
2023-03-06T10:21:31.316Z,15.5
2023-03-06T10:26:02.629Z,14.9
2023-03-06T10:31:01.490Z,15.0
2023-03-06T10:36:02.357Z,15.3
2023-03-06T10:41:01.402Z,16.5
2023-03-06T10:46:01.365Z,16.2
2023-03-06T10:51:18.992Z,16.8
2023-03-06T10:56:01.975Z,17.2
2023-03-06T11:01:01.296Z,17.6
2023-03-06T11:06:01.270Z,17.6
2023-03-06T11:11:01.994Z,17.9
2023-03-06T11:16:04.131Z,18.5
2023-03-06T11:21:01.263Z,18.7
2023-03-06T11:26:01.264Z,17.6
2023-03-06T11:31:01.464Z,17.6
2023-03-06T11:36:06.276Z,17.5
2023-03-06T11:41:01.269Z,18.5
2023-03-06T11:46:09.998Z,18.1
2023-03-06T11:51:01.285Z,19.3
2023-03-06T12:01:01.378Z,20.5
2023-03-06T12:06:01.415Z,19.8
2023-03-06T12:11:01.296Z,20.0
2023-03-06T12:16:01.264Z,20.2
2023-03-06T12:21:01.272Z,20.0
2023-03-06T12:26:01.469Z,19.4
2023-03-06T12:31:12.255Z,19.4
2023-03-06T12:36:01.259Z,19.4
2023-03-06T12:41:01.269Z,19.4
2023-03-06T12:46:01.622Z,19.3
2023-03-06T12:51:01.318Z,19.4
2023-03-06T12:56:02.188Z,18.6
2023-03-06T13:02:01.687Z,17.8
2023-03-06T13:07:01.261Z,17.2
2023-03-06T13:12:01.266Z,16.4
2023-03-06T13:17:01.302Z,16.0
2023-03-06T13:22:01.527Z,16.0
2023-03-06T13:27:01.337Z,15.8
2023-03-06T13:32:01.538Z,15.9
2023-03-06T13:42:01.524Z,15.8
2023-03-06T13:47:01.420Z,15.7
2023-03-06T13:52:01.337Z,15.4
2023-03-06T13:57:01.363Z,15.3
2023-03-06T14:02:01.375Z,15.9
2023-03-06T14:07:01.342Z,16.0
2023-03-06T14:12:01.360Z,16.3
2023-03-06T14:17:05.237Z,16.9
2023-03-06T14:22:01.528Z,17.0
2023-03-06T14:27:01.376Z,16.4
2023-03-06T14:32:02.083Z,16.2
2023-03-06T14:37:01.300Z,15.2
2023-03-06T14:43:01.501Z,14.7
2023-03-06T14:48:01.246Z,14.3
2023-03-06T14:53:01.322Z,13.8
2023-03-06T15:03:01.598Z,13.9
2023-03-06T15:08:01.368Z,13.7
2023-03-06T15:13:01.290Z,13.0
2023-03-06T15:18:01.339Z,12.9
2023-03-06T15:23:02.085Z,12.3
2023-03-06T15:28:16.923Z,12.0
2023-03-06T15:33:01.269Z,12.0
2023-03-06T15:38:02.781Z,11.9
2023-03-06T15:43:01.847Z,11.7
2023-03-06T15:48:01.333Z,11.3
2023-03-06T15:53:01.335Z,11.5
2023-03-06T15:58:01.447Z,11.8
2023-03-06T16:03:02.485Z,12.2
2023-03-06T16:08:02.503Z,11.7
2023-03-06T16:13:03.501Z,11.8
2023-03-06T16:18:01.261Z,11.4
2023-03-06T16:23:01.423Z,11.4
2023-03-06T16:28:01.355Z,10.9
2023-03-06T16:33:01.276Z,10.8
2023-03-06T16:38:01.914Z,10.2
2023-03-06T16:43:01.499Z,10.2
2023-03-06T16:48:01.266Z,9.0
2023-03-06T16:53:01.319Z,8.4
2023-03-06T16:58:01.277Z,8.2
2023-03-06T17:03:01.416Z,8.9
2023-03-06T17:08:02.027Z,8.9
2023-03-06T17:13:01.359Z,9.6
2023-03-06T17:18:01.259Z,9.8
2023-03-06T17:23:01.408Z,10.6
2023-03-06T17:28:01.411Z,10.9
2023-03-06T17:33:01.261Z,11.5
2023-03-06T17:38:03.749Z,11.6
2023-03-06T17:43:01.264Z,12.8
2023-03-06T17:48:01.419Z,12.6
2023-03-06T17:53:01.269Z,13.0
2023-03-06T17:58:01.515Z,12.3
2023-03-06T18:03:01.240Z,12.6
2023-03-06T18:08:01.297Z,12.0
2023-03-06T18:13:01.622Z,12.0
2023-03-06T18:19:01.398Z,11.8
2023-03-06T18:24:01.353Z,12.5
2023-03-06T18:29:01.434Z,12.4
2023-03-06T18:34:01.259Z,13.0
2023-03-06T18:39:01.501Z,13.7
2023-03-06T18:44:01.349Z,13.9
2023-03-06T18:49:01.277Z,13.2
2023-03-06T18:54:01.284Z,13.6
2023-03-06T18:59:01.425Z,13.8
2023-03-06T19:04:01.682Z,13.8
2023-03-06T19:10:01.948Z,13.7
2023-03-06T19:15:02.479Z,15.1
2023-03-06T19:20:01.669Z,15.6
2023-03-06T19:25:04.274Z,15.8
2023-03-06T19:30:01.940Z,14.9
2023-03-06T19:35:01.492Z,15.4
2023-03-06T19:40:01.342Z,15.3
2023-03-06T19:45:02.049Z,15.0
2023-03-06T19:50:01.391Z,14.5
2023-03-06T19:55:01.915Z,15.9
2023-03-06T20:00:01.820Z,16.0
2023-03-06T20:05:01.411Z,16.2
2023-03-06T20:10:01.379Z,16.9
2023-03-06T20:15:01.983Z,17.2
2023-03-06T20:20:01.291Z,16.4
2023-03-06T20:25:01.473Z,15.8
2023-03-06T20:30:02.242Z,15.6
2023-03-06T20:35:01.409Z,15.7
2023-03-06T20:40:03.049Z,15.9
2023-03-06T20:45:01.902Z,16.5
2023-03-06T20:50:01.413Z,16.9
2023-03-06T20:55:01.425Z,15.6
2023-03-06T21:00:02.184Z,15.6
2023-03-06T21:05:01.436Z,16.0
2023-03-06T21:10:01.284Z,16.5
2023-03-06T21:15:02.711Z,16.4
2023-03-06T21:20:01.290Z,17.8
2023-03-06T21:25:01.339Z,18.0
2023-03-06T21:30:01.958Z,18.5
2023-03-06T21:35:01.431Z,18.0
2023-03-06T21:40:02.040Z,18.5
2023-03-06T21:45:03.701Z,18.8
2023-03-06T21:50:01.357Z,18.4
2023-03-06T21:55:01.498Z,18.0
2023-03-06T22:00:01.908Z,18.4
2023-03-06T22:05:01.276Z,19.0
2023-03-06T22:10:01.283Z,17.3
2023-03-06T22:15:02.033Z,18.1
2023-03-06T22:20:01.380Z,17.6
2023-03-06T22:25:01.326Z,17.7
2023-03-06T22:30:01.894Z,17.0
2023-03-06T22:35:01.390Z,18.3
2023-03-06T22:40:01.311Z,18.0
2023-03-06T22:45:02.878Z,18.8
2023-03-06T22:50:01.459Z,19.3
2023-03-06T22:55:01.446Z,19.1
2023-03-06T23:00:01.359Z,19.5
2023-03-06T23:05:01.298Z,19.4
2023-03-06T23:10:01.267Z,19.0
2023-03-06T23:15:02.692Z,19.4
2023-03-06T23:25:01.440Z,19.3
2023-03-06T23:30:04.019Z,18.4
2023-03-06T23:35:01.397Z,18.8
2023-03-06T23:45:01.758Z,18.0
2023-03-06T23:50:01.270Z,18.6
2023-03-06T23:55:01.446Z,19.2
